sensor_id;sensor_type;location;lat;lon;timestamp;temperature;humidity
20481;DHT22;10399;50.754;3.366;2022-07-21T00:00:15;20.60;99.90
20481;DHT22;10399;50.754;3.366;2022-07-21T00:02:42;20.70;99.90
20481;DHT22;10399;50.754;3.366;2022-07-21T00:05:09;20.80;99.90
20481;DHT22;10399;50.754;3.366;2022-07-21T00:07:36;20.80;99.90
20481;DHT22;10399;50.754;3.366;2022-07-21T00:10:03;20.80;99.90
20481;DHT22;10399;50.754;3.366;2022-07-21T00:12:30;20.40;99.90
20481;DHT22;10399;50.754;3.366;2022-07-21T00:14:57;20.40;99.90
20481;DHT22;10399;50.754;3.366;2022-07-21T00:17:24;20.20;99.90
20481;DHT22;10399;50.754;3.366;2022-07-21T00:19:51;20.00;99.90
20481;DHT22;10399;50.754;3.366;2022-07-21T00:22:18;20.30;99.90
20481;DHT22;10399;50.754;3.366;2022-07-21T00:24:45;20.40;99.90
20481;DHT22;10399;50.754;3.366;2022-07-21T00:27:12;20.20;99.90
20481;DHT22;10399;50.754;3.366;2022-07-21T00:29:40;20.00;99.90
20481;DHT22;10399;50.754;3.366;2022-07-21T00:32:07;20.00;99.90
20481;DHT22;10399;50.754;3.366;2022-07-21T00:34:34;19.90;99.90
20481;DHT22;10399;50.754;3.366;2022-07-21T00:37:01;19.80;99.90
20481;DHT22;10399;50.754;3.366;2022-07-21T00:39:28;20.00;99.90
20481;DHT22;10399;50.754;3.366;2022-07-21T00:41:56;19.80;99.90
20481;DHT22;10399;50.754;3.366;2022-07-21T00:44:24;19.90;99.90
20481;DHT22;10399;50.754;3.366;2022-07-21T00:46:52;20.00;99.90
20481;DHT22;10399;50.754;3.366;2022-07-21T00:49:20;19.90;99.90
20481;DHT22;10399;50.754;3.366;2022-07-21T00:51:48;19.90;99.90
20481;DHT22;10399;50.754;3.366;2022-07-21T00:54:16;20.00;99.90
20481;DHT22;10399;50.754;3.366;2022-07-21T00:56:45;20.20;99.90
20481;DHT22;10399;50.754;3.366;2022-07-21T00:59:12;20.10;99.90
20481;DHT22;10399;50.754;3.366;2022-07-21T01:01:39;19.90;99.90
20481;DHT22;10399;50.754;3.366;2022-07-21T01:04:06;19.80;99.90
20481;DHT22;10399;50.754;3.366;2022-07-21T01:06:34;19.90;99.90
20481;DHT22;10399;50.754;3.366;2022-07-21T01:09:01;19.90;99.90
20481;DHT22;10399;50.754;3.366;2022-07-21T01:11:36;20.00;99.90
20481;DHT22;10399;50.754;3.366;2022-07-21T01:14:04;20.20;99.90
20481;DHT22;10399;50.754;3.366;2022-07-21T01:16:31;20.00;99.90
20481;DHT22;10399;50.754;3.366;2022-07-21T01:18:59;19.90;99.90
20481;DHT22;10399;50.754;3.366;2022-07-21T01:21:34;19.70;99.90
20481;DHT22;10399;50.754;3.366;2022-07-21T01:24:04;19.80;99.90
20481;DHT22;10399;50.754;3.366;2022-07-21T01:26:43;19.70;99.90
20481;DHT22;10399;50.754;3.366;2022-07-21T01:29:11;19.50;99.90
20481;DHT22;10399;50.754;3.366;2022-07-21T01:31:40;19.60;99.90
20481;DHT22;10399;50.754;3.366;2022-07-21T01:34:08;20.00;99.90
20481;DHT22;10399;50.754;3.366;2022-07-21T01:36:36;19.90;99.90
20481;DHT22;10399;50.754;3.366;2022-07-21T01:39:04;19.80;99.90
20481;DHT22;10399;50.754;3.366;2022-07-21T01:41:50;19.90;99.90
20481;DHT22;10399;50.754;3.366;2022-07-21T01:44:18;19.70;99.90
20481;DHT22;10399;50.754;3.366;2022-07-21T01:46:48;19.40;99.90
20481;DHT22;10399;50.754;3.366;2022-07-21T01:49:17;19.50;99.90
20481;DHT22;10399;50.754;3.366;2022-07-21T01:51:45;19.70;99.90
20481;DHT22;10399;50.754;3.366;2022-07-21T01:54:12;19.70;99.90
20481;DHT22;10399;50.754;3.366;2022-07-21T01:56:39;19.80;99.90
20481;DHT22;10399;50.754;3.366;2022-07-21T01:59:07;19.90;99.90
20481;DHT22;10399;50.754;3.366;2022-07-21T02:01:34;20.00;99.90
20481;DHT22;10399;50.754;3.366;2022-07-21T02:04:04;20.10;99.90
20481;DHT22;10399;50.754;3.366;2022-07-21T02:06:32;20.10;99.90
20481;DHT22;10399;50.754;3.366;2022-07-21T02:08:59;19.80;99.90
20481;DHT22;10399;50.754;3.366;2022-07-21T02:11:27;20.00;99.90
20481;DHT22;10399;50.754;3.366;2022-07-21T02:13:54;19.90;99.90
20481;DHT22;10399;50.754;3.366;2022-07-21T02:16:21;19.90;99.90
20481;DHT22;10399;50.754;3.366;2022-07-21T02:18:48;19.80;99.90
20481;DHT22;10399;50.754;3.366;2022-07-21T02:21:16;20.10;99.90
20481;DHT22;10399;50.754;3.366;2022-07-21T02:23:43;20.00;99.90
20481;DHT22;10399;50.754;3.366;2022-07-21T02:26:10;20.10;99.90
20481;DHT22;10399;50.754;3.366;2022-07-21T02:28:38;20.20;99.90
20481;DHT22;10399;50.754;3.366;2022-07-21T02:31:06;20.20;99.90
20481;DHT22;10399;50.754;3.366;2022-07-21T02:33:33;20.40;99.90
20481;DHT22;10399;50.754;3.366;2022-07-21T02:36:00;20.30;99.90
20481;DHT22;10399;50.754;3.366;2022-07-21T02:38:27;20.30;99.90
20481;DHT22;10399;50.754;3.366;2022-07-21T02:40:54;20.20;99.90
20481;DHT22;10399;50.754;3.366;2022-07-21T02:43:24;20.00;99.90
20481;DHT22;10399;50.754;3.366;2022-07-21T02:45:51;20.00;99.90
20481;DHT22;10399;50.754;3.366;2022-07-21T02:48:18;20.00;99.90
20481;DHT22;10399;50.754;3.366;2022-07-21T02:50:45;20.20;99.90
20481;DHT22;10399;50.754;3.366;2022-07-21T02:53:14;20.30;99.90
20481;DHT22;10399;50.754;3.366;2022-07-21T02:55:48;20.20;99.90
20481;DHT22;10399;50.754;3.366;2022-07-21T02:58:23;20.20;99.90
20481;DHT22;10399;50.754;3.366;2022-07-21T03:01:00;20.10;99.90
20481;DHT22;10399;50.754;3.366;2022-07-21T03:03:30;20.10;99.90
20481;DHT22;10399;50.754;3.366;2022-07-21T03:05:58;20.20;99.90
20481;DHT22;10399;50.754;3.366;2022-07-21T03:08:26;20.30;99.90
20481;DHT22;10399;50.754;3.366;2022-07-21T03:10:54;20.40;99.90
20481;DHT22;10399;50.754;3.366;2022-07-21T03:13:21;20.40;99.90
20481;DHT22;10399;50.754;3.366;2022-07-21T03:15:49;20.50;99.90
20481;DHT22;10399;50.754;3.366;2022-07-21T03:18:16;20.50;99.90
20481;DHT22;10399;50.754;3.366;2022-07-21T03:20:43;20.50;99.90
20481;DHT22;10399;50.754;3.366;2022-07-21T03:23:11;20.40;99.90
20481;DHT22;10399;50.754;3.366;2022-07-21T03:25:38;20.50;99.90
20481;DHT22;10399;50.754;3.366;2022-07-21T03:28:06;20.40;99.90
20481;DHT22;10399;50.754;3.366;2022-07-21T03:30:34;20.30;99.90
20481;DHT22;10399;50.754;3.366;2022-07-21T03:33:02;20.30;99.90
20481;DHT22;10399;50.754;3.366;2022-07-21T03:35:29;20.40;99.90
20481;DHT22;10399;50.754;3.366;2022-07-21T03:37:59;20.40;99.90
20481;DHT22;10399;50.754;3.366;2022-07-21T03:40:29;20.60;99.90
20481;DHT22;10399;50.754;3.366;2022-07-21T03:42:58;20.40;99.90
20481;DHT22;10399;50.754;3.366;2022-07-21T03:45:26;20.50;99.90
20481;DHT22;10399;50.754;3.366;2022-07-21T03:48:01;20.50;99.90
20481;DHT22;10399;50.754;3.366;2022-07-21T03:50:30;20.40;99.90
20481;DHT22;10399;50.754;3.366;2022-07-21T03:52:57;20.40;99.90
20481;DHT22;10399;50.754;3.366;2022-07-21T03:55:24;20.50;99.90
20481;DHT22;10399;50.754;3.366;2022-07-21T03:57:52;20.30;99.90
20481;DHT22;10399;50.754;3.366;2022-07-21T04:02:52;20.60;99.90
20481;DHT22;10399;50.754;3.366;2022-07-21T04:05:19;20.50;99.90
20481;DHT22;10399;50.754;3.366;2022-07-21T04:07:47;20.40;99.90
20481;DHT22;10399;50.754;3.366;2022-07-21T04:10:17;20.40;99.90
20481;DHT22;10399;50.754;3.366;2022-07-21T04:12:45;20.50;99.90
20481;DHT22;10399;50.754;3.366;2022-07-21T04:15:12;20.40;99.90
20481;DHT22;10399;50.754;3.366;2022-07-21T04:17:40;20.70;99.90
20481;DHT22;10399;50.754;3.366;2022-07-21T04:20:09;20.40;99.90
20481;DHT22;10399;50.754;3.366;2022-07-21T04:22:37;20.50;99.90
20481;DHT22;10399;50.754;3.366;2022-07-21T04:25:04;20.50;99.90
20481;DHT22;10399;50.754;3.366;2022-07-21T04:27:32;20.60;99.90
20481;DHT22;10399;50.754;3.366;2022-07-21T04:29:59;20.50;99.90
20481;DHT22;10399;50.754;3.366;2022-07-21T04:32:26;20.70;99.90
20481;DHT22;10399;50.754;3.366;2022-07-21T04:34:53;20.80;99.90
20481;DHT22;10399;50.754;3.366;2022-07-21T04:37:20;20.80;99.90
20481;DHT22;10399;50.754;3.366;2022-07-21T04:39:49;20.70;99.90
20481;DHT22;10399;50.754;3.366;2022-07-21T04:42:19;20.80;99.90
20481;DHT22;10399;50.754;3.366;2022-07-21T04:44:47;20.80;99.90
20481;DHT22;10399;50.754;3.366;2022-07-21T04:47:14;20.50;99.90
20481;DHT22;10399;50.754;3.366;2022-07-21T04:49:41;20.40;99.90
20481;DHT22;10399;50.754;3.366;2022-07-21T04:52:08;20.30;99.90
20481;DHT22;10399;50.754;3.366;2022-07-21T04:54:35;20.30;99.90
20481;DHT22;10399;50.754;3.366;2022-07-21T04:57:03;20.40;99.90
20481;DHT22;10399;50.754;3.366;2022-07-21T04:59:33;20.60;99.90
20481;DHT22;10399;50.754;3.366;2022-07-21T05:02:01;20.70;99.90
20481;DHT22;10399;50.754;3.366;2022-07-21T05:04:28;20.60;99.90
20481;DHT22;10399;50.754;3.366;2022-07-21T05:06:56;20.80;99.90
20481;DHT22;10399;50.754;3.366;2022-07-21T05:09:23;20.80;99.90
20481;DHT22;10399;50.754;3.366;2022-07-21T05:11:50;20.80;99.90
20481;DHT22;10399;50.754;3.366;2022-07-21T05:14:17;20.80;99.90
20481;DHT22;10399;50.754;3.366;2022-07-21T05:16:44;20.70;99.90
20481;DHT22;10399;50.754;3.366;2022-07-21T05:19:11;20.80;99.90
20481;DHT22;10399;50.754;3.366;2022-07-21T05:21:38;20.80;99.90
20481;DHT22;10399;50.754;3.366;2022-07-21T05:24:05;20.80;99.90
20481;DHT22;10399;50.754;3.366;2022-07-21T05:26:32;20.80;99.90
20481;DHT22;10399;50.754;3.366;2022-07-21T05:28:59;20.90;99.90
20481;DHT22;10399;50.754;3.366;2022-07-21T05:31:26;20.50;99.90
20481;DHT22;10399;50.754;3.366;2022-07-21T05:33:53;20.70;99.90
20481;DHT22;10399;50.754;3.366;2022-07-21T05:36:20;20.50;99.90
20481;DHT22;10399;50.754;3.366;2022-07-21T05:38:47;20.40;99.90
20481;DHT22;10399;50.754;3.366;2022-07-21T05:41:14;20.60;99.90
20481;DHT22;10399;50.754;3.366;2022-07-21T05:43:41;20.60;99.90
20481;DHT22;10399;50.754;3.366;2022-07-21T05:46:08;20.70;99.90
20481;DHT22;10399;50.754;3.366;2022-07-21T05:48:35;20.60;99.90
20481;DHT22;10399;50.754;3.366;2022-07-21T05:51:02;20.50;99.90
20481;DHT22;10399;50.754;3.366;2022-07-21T05:53:29;20.60;99.90
20481;DHT22;10399;50.754;3.366;2022-07-21T05:55:56;20.70;99.90
20481;DHT22;10399;50.754;3.366;2022-07-21T05:58:23;20.80;99.90
20481;DHT22;10399;50.754;3.366;2022-07-21T06:00:54;20.80;99.90
20481;DHT22;10399;50.754;3.366;2022-07-21T06:03:42;20.80;99.90
20481;DHT22;10399;50.754;3.366;2022-07-21T06:06:10;20.80;99.90
20481;DHT22;10399;50.754;3.366;2022-07-21T06:08:40;20.80;99.90
20481;DHT22;10399;50.754;3.366;2022-07-21T06:11:09;20.70;99.90
20481;DHT22;10399;50.754;3.366;2022-07-21T06:13:38;20.60;99.90
20481;DHT22;10399;50.754;3.366;2022-07-21T06:16:05;20.50;99.90
20481;DHT22;10399;50.754;3.366;2022-07-21T06:18:33;20.60;99.90
20481;DHT22;10399;50.754;3.366;2022-07-21T06:21:01;20.80;99.90
20481;DHT22;10399;50.754;3.366;2022-07-21T06:23:28;20.80;99.90
20481;DHT22;10399;50.754;3.366;2022-07-21T06:25:56;20.60;99.90
20481;DHT22;10399;50.754;3.366;2022-07-21T06:28:23;20.70;99.90
20481;DHT22;10399;50.754;3.366;2022-07-21T06:30:50;20.90;99.90
20481;DHT22;10399;50.754;3.366;2022-07-21T06:33:18;21.00;99.90
20481;DHT22;10399;50.754;3.366;2022-07-21T06:35:45;21.00;99.90
20481;DHT22;10399;50.754;3.366;2022-07-21T06:38:12;20.90;99.90
20481;DHT22;10399;50.754;3.366;2022-07-21T06:40:40;20.60;99.90
20481;DHT22;10399;50.754;3.366;2022-07-21T06:43:10;20.60;99.90
20481;DHT22;10399;50.754;3.366;2022-07-21T06:45:55;20.80;99.90
20481;DHT22;10399;50.754;3.366;2022-07-21T06:48:23;20.90;99.90
20481;DHT22;10399;50.754;3.366;2022-07-21T06:50:53;20.90;99.90
20481;DHT22;10399;50.754;3.366;2022-07-21T06:53:21;20.90;99.90
20481;DHT22;10399;50.754;3.366;2022-07-21T06:55:48;21.00;99.90
20481;DHT22;10399;50.754;3.366;2022-07-21T06:58:29;20.80;99.90
20481;DHT22;10399;50.754;3.366;2022-07-21T07:01:03;20.80;99.90
20481;DHT22;10399;50.754;3.366;2022-07-21T07:03:31;20.60;99.90
20481;DHT22;10399;50.754;3.366;2022-07-21T07:06:01;20.60;99.90
20481;DHT22;10399;50.754;3.366;2022-07-21T07:08:28;20.80;99.90
20481;DHT22;10399;50.754;3.366;2022-07-21T07:10:55;20.60;99.90
20481;DHT22;10399;50.754;3.366;2022-07-21T07:13:23;20.60;99.90
20481;DHT22;10399;50.754;3.366;2022-07-21T07:16:10;20.60;99.90
20481;DHT22;10399;50.754;3.366;2022-07-21T07:18:37;20.40;99.90
20481;DHT22;10399;50.754;3.366;2022-07-21T07:21:04;20.30;99.90
20481;DHT22;10399;50.754;3.366;2022-07-21T07:23:38;20.40;99.90
20481;DHT22;10399;50.754;3.366;2022-07-21T07:26:05;20.50;99.90
20481;DHT22;10399;50.754;3.366;2022-07-21T07:28:33;20.50;99.90
20481;DHT22;10399;50.754;3.366;2022-07-21T07:31:00;20.70;99.90
20481;DHT22;10399;50.754;3.366;2022-07-21T07:33:27;20.50;99.90
20481;DHT22;10399;50.754;3.366;2022-07-21T07:35:54;20.40;99.90
20481;DHT22;10399;50.754;3.366;2022-07-21T07:38:23;20.60;99.90
20481;DHT22;10399;50.754;3.366;2022-07-21T07:40:51;20.60;99.90
20481;DHT22;10399;50.754;3.366;2022-07-21T07:43:19;20.40;99.90
20481;DHT22;10399;50.754;3.366;2022-07-21T07:45:46;20.50;99.90
20481;DHT22;10399;50.754;3.366;2022-07-21T07:48:13;20.40;99.90
20481;DHT22;10399;50.754;3.366;2022-07-21T07:50:40;20.40;99.90
20481;DHT22;10399;50.754;3.366;2022-07-21T07:53:07;20.60;99.90
20481;DHT22;10399;50.754;3.366;2022-07-21T07:55:34;20.70;99.90
20481;DHT22;10399;50.754;3.366;2022-07-21T07:58:01;20.70;99.90
20481;DHT22;10399;50.754;3.366;2022-07-21T08:00:28;20.80;99.90
20481;DHT22;10399;50.754;3.366;2022-07-21T08:03:15;20.80;99.90
20481;DHT22;10399;50.754;3.366;2022-07-21T08:05:43;20.80;99.90
20481;DHT22;10399;50.754;3.366;2022-07-21T08:08:10;20.70;99.90
20481;DHT22;10399;50.754;3.366;2022-07-21T08:10:36;20.70;99.90
20481;DHT22;10399;50.754;3.366;2022-07-21T08:13:08;20.60;99.90
20481;DHT22;10399;50.754;3.366;2022-07-21T08:15:36;20.70;99.90
20481;DHT22;10399;50.754;3.366;2022-07-21T08:18:04;20.70;99.90
20481;DHT22;10399;50.754;3.366;2022-07-21T08:20:32;20.80;99.90
20481;DHT22;10399;50.754;3.366;2022-07-21T08:22:59;20.90;99.90
20481;DHT22;10399;50.754;3.366;2022-07-21T08:25:26;20.90;99.90
20481;DHT22;10399;50.754;3.366;2022-07-21T08:27:53;20.90;99.90
20481;DHT22;10399;50.754;3.366;2022-07-21T08:30:20;21.00;99.90
20481;DHT22;10399;50.754;3.366;2022-07-21T08:32:55;21.20;99.90
20481;DHT22;10399;50.754;3.366;2022-07-21T08:35:22;21.30;99.90
20481;DHT22;10399;50.754;3.366;2022-07-21T08:37:56;21.30;99.90
20481;DHT22;10399;50.754;3.366;2022-07-21T08:40:25;21.20;99.90
20481;DHT22;10399;50.754;3.366;2022-07-21T08:42:53;21.10;99.90
20481;DHT22;10399;50.754;3.366;2022-07-21T08:45:21;21.00;99.90
20481;DHT22;10399;50.754;3.366;2022-07-21T08:47:52;21.10;99.90
20481;DHT22;10399;50.754;3.366;2022-07-21T08:50:22;21.30;99.90
20481;DHT22;10399;50.754;3.366;2022-07-21T08:52:50;21.30;99.90
20481;DHT22;10399;50.754;3.366;2022-07-21T08:55:28;21.40;99.90
20481;DHT22;10399;50.754;3.366;2022-07-21T08:57:56;21.40;99.90
20481;DHT22;10399;50.754;3.366;2022-07-21T09:00:22;21.30;99.90
20481;DHT22;10399;50.754;3.366;2022-07-21T09:02:49;21.50;99.90
20481;DHT22;10399;50.754;3.366;2022-07-21T09:05:34;21.40;99.90
20481;DHT22;10399;50.754;3.366;2022-07-21T09:08:00;21.40;99.90
20481;DHT22;10399;50.754;3.366;2022-07-21T09:10:30;21.50;99.90
20481;DHT22;10399;50.754;3.366;2022-07-21T09:13:02;21.40;99.90
20481;DHT22;10399;50.754;3.366;2022-07-21T09:15:30;21.40;99.90
20481;DHT22;10399;50.754;3.366;2022-07-21T09:18:15;21.40;99.90
20481;DHT22;10399;50.754;3.366;2022-07-21T09:20:52;21.40;99.90
20481;DHT22;10399;50.754;3.366;2022-07-21T09:23:23;21.40;99.90
20481;DHT22;10399;50.754;3.366;2022-07-21T09:25:54;21.30;99.90
20481;DHT22;10399;50.754;3.366;2022-07-21T09:28:27;21.40;99.90
20481;DHT22;10399;50.754;3.366;2022-07-21T09:33:37;21.50;99.90
20481;DHT22;10399;50.754;3.366;2022-07-21T09:36:06;21.60;99.90
20481;DHT22;10399;50.754;3.366;2022-07-21T09:38:38;21.60;99.90
20481;DHT22;10399;50.754;3.366;2022-07-21T09:41:12;21.60;99.90
20481;DHT22;10399;50.754;3.366;2022-07-21T09:46:20;21.90;99.90
20481;DHT22;10399;50.754;3.366;2022-07-21T09:48:52;22.00;99.90
20481;DHT22;10399;50.754;3.366;2022-07-21T09:51:39;21.90;99.90
20481;DHT22;10399;50.754;3.366;2022-07-21T09:54:10;21.80;99.90
20481;DHT22;10399;50.754;3.366;2022-07-21T09:56:39;21.90;99.90
20481;DHT22;10399;50.754;3.366;2022-07-21T09:59:08;22.10;99.90
20481;DHT22;10399;50.754;3.366;2022-07-21T10:01:36;22.00;99.90
20481;DHT22;10399;50.754;3.366;2022-07-21T10:04:04;22.20;99.90
20481;DHT22;10399;50.754;3.366;2022-07-21T10:06:33;22.10;99.90
20481;DHT22;10399;50.754;3.366;2022-07-21T10:09:03;22.20;99.90
20481;DHT22;10399;50.754;3.366;2022-07-21T10:11:31;22.40;99.90
20481;DHT22;10399;50.754;3.366;2022-07-21T10:13:58;22.60;99.90
20481;DHT22;10399;50.754;3.366;2022-07-21T10:16:25;22.80;99.90
20481;DHT22;10399;50.754;3.366;2022-07-21T10:19:06;22.90;99.90
20481;DHT22;10399;50.754;3.366;2022-07-21T10:24:28;22.80;99.90
20481;DHT22;10399;50.754;3.366;2022-07-21T10:27:01;22.70;99.90
20481;DHT22;10399;50.754;3.366;2022-07-21T10:32:16;22.60;99.90
20481;DHT22;10399;50.754;3.366;2022-07-21T10:34:43;22.70;99.90
20481;DHT22;10399;50.754;3.366;2022-07-21T10:37:11;22.70;99.90
20481;DHT22;10399;50.754;3.366;2022-07-21T10:39:57;23.00;99.90
20481;DHT22;10399;50.754;3.366;2022-07-21T10:42:25;23.20;99.90
20481;DHT22;10399;50.754;3.366;2022-07-21T10:44:52;23.50;99.90
20481;DHT22;10399;50.754;3.366;2022-07-21T10:47:21;23.30;99.90
20481;DHT22;10399;50.754;3.366;2022-07-21T10:57:41;24.10;99.90
20481;DHT22;10399;50.754;3.366;2022-07-21T11:00:29;24.40;99.90
20481;DHT22;10399;50.754;3.366;2022-07-21T11:03:02;24.50;99.90
20481;DHT22;10399;50.754;3.366;2022-07-21T11:05:33;23.90;99.90
20481;DHT22;10399;50.754;3.366;2022-07-21T11:08:18;23.60;99.90
20481;DHT22;10399;50.754;3.366;2022-07-21T11:10:50;23.70;99.90
20481;DHT22;10399;50.754;3.366;2022-07-21T11:13:20;23.90;99.90
20481;DHT22;10399;50.754;3.366;2022-07-21T11:15:56;24.10;99.90
20481;DHT22;10399;50.754;3.366;2022-07-21T11:18:29;24.10;99.90
20481;DHT22;10399;50.754;3.366;2022-07-21T11:21:13;24.10;99.90
20481;DHT22;10399;50.754;3.366;2022-07-21T11:23:46;24.20;99.90
20481;DHT22;10399;50.754;3.366;2022-07-21T11:26:19;24.20;99.90
20481;DHT22;10399;50.754;3.366;2022-07-21T11:29:04;24.10;99.90
20481;DHT22;10399;50.754;3.366;2022-07-21T11:31:33;24.10;99.90
20481;DHT22;10399;50.754;3.366;2022-07-21T11:34:12;24.20;99.90
20481;DHT22;10399;50.754;3.366;2022-07-21T11:36:39;24.20;99.90
20481;DHT22;10399;50.754;3.366;2022-07-21T11:39:10;24.00;99.90
20481;DHT22;10399;50.754;3.366;2022-07-21T11:41:38;23.90;99.90
20481;DHT22;10399;50.754;3.366;2022-07-21T11:44:08;23.70;99.90
20481;DHT22;10399;50.754;3.366;2022-07-21T11:49:20;23.50;99.90
20481;DHT22;10399;50.754;3.366;2022-07-21T11:52:04;23.60;99.90
20481;DHT22;10399;50.754;3.366;2022-07-21T11:54:46;23.70;99.90
20481;DHT22;10399;50.754;3.366;2022-07-21T11:57:15;24.00;99.90
20481;DHT22;10399;50.754;3.366;2022-07-21T11:59:43;24.30;99.90
20481;DHT22;10399;50.754;3.366;2022-07-21T12:02:49;24.30;99.90
20481;DHT22;10399;50.754;3.366;2022-07-21T12:05:09;24.30;99.90
20481;DHT22;10399;50.754;3.366;2022-07-21T12:07:42;24.30;99.90
20481;DHT22;10399;50.754;3.366;2022-07-21T12:10:12;24.40;99.90
20481;DHT22;10399;50.754;3.366;2022-07-21T12:12:45;24.40;99.90
20481;DHT22;10399;50.754;3.366;2022-07-21T12:18:18;24.70;99.90
20481;DHT22;10399;50.754;3.366;2022-07-21T12:20:46;24.80;99.90
20481;DHT22;10399;50.754;3.366;2022-07-21T12:25:49;24.70;99.90
20481;DHT22;10399;50.754;3.366;2022-07-21T12:28:50;24.70;99.90
20481;DHT22;10399;50.754;3.366;2022-07-21T12:31:24;25.00;99.90
20481;DHT22;10399;50.754;3.366;2022-07-21T12:33:54;25.00;99.90
20481;DHT22;10399;50.754;3.366;2022-07-21T12:36:43;25.10;99.90
20481;DHT22;10399;50.754;3.366;2022-07-21T12:41:46;25.00;99.90
20481;DHT22;10399;50.754;3.366;2022-07-21T12:44:13;24.90;99.90
20481;DHT22;10399;50.754;3.366;2022-07-21T12:46:40;25.00;99.90
20481;DHT22;10399;50.754;3.366;2022-07-21T12:49:10;25.00;99.90
20481;DHT22;10399;50.754;3.366;2022-07-21T12:51:41;24.90;99.90
20481;DHT22;10399;50.754;3.366;2022-07-21T12:54:09;24.80;99.90
20481;DHT22;10399;50.754;3.366;2022-07-21T12:56:36;24.70;99.90
20481;DHT22;10399;50.754;3.366;2022-07-21T12:59:04;24.50;99.90
20481;DHT22;10399;50.754;3.366;2022-07-21T13:01:32;24.50;99.90
20481;DHT22;10399;50.754;3.366;2022-07-21T13:04:03;24.50;99.90
20481;DHT22;10399;50.754;3.366;2022-07-21T13:06:30;24.50;99.90
20481;DHT22;10399;50.754;3.366;2022-07-21T13:08:58;24.40;99.90
20481;DHT22;10399;50.754;3.366;2022-07-21T13:11:25;24.40;99.90
20481;DHT22;10399;50.754;3.366;2022-07-21T13:13:52;24.30;99.90
20481;DHT22;10399;50.754;3.366;2022-07-21T13:16:20;24.40;99.90
20481;DHT22;10399;50.754;3.366;2022-07-21T13:18:50;24.50;99.90
20481;DHT22;10399;50.754;3.366;2022-07-21T13:21:19;24.50;99.90
20481;DHT22;10399;50.754;3.366;2022-07-21T13:23:46;24.50;99.90
20481;DHT22;10399;50.754;3.366;2022-07-21T13:26:13;24.50;99.90
20481;DHT22;10399;50.754;3.366;2022-07-21T13:28:40;24.50;99.90
20481;DHT22;10399;50.754;3.366;2022-07-21T13:31:07;24.40;99.90
20481;DHT22;10399;50.754;3.366;2022-07-21T13:33:36;24.50;99.90
20481;DHT22;10399;50.754;3.366;2022-07-21T13:36:08;24.30;99.90
20481;DHT22;10399;50.754;3.366;2022-07-21T13:38:36;24.20;99.90
20481;DHT22;10399;50.754;3.366;2022-07-21T13:41:03;24.20;99.90
20481;DHT22;10399;50.754;3.366;2022-07-21T13:43:50;24.20;99.90
20481;DHT22;10399;50.754;3.366;2022-07-21T13:46:18;24.20;99.90
20481;DHT22;10399;50.754;3.366;2022-07-21T13:48:46;24.10;99.90
20481;DHT22;10399;50.754;3.366;2022-07-21T13:51:14;24.00;99.90
20481;DHT22;10399;50.754;3.366;2022-07-21T13:53:42;23.90;99.90
20481;DHT22;10399;50.754;3.366;2022-07-21T13:56:10;23.90;99.90
20481;DHT22;10399;50.754;3.366;2022-07-21T13:58:38;23.80;99.90
20481;DHT22;10399;50.754;3.366;2022-07-21T14:01:05;23.80;99.90
20481;DHT22;10399;50.754;3.366;2022-07-21T14:03:33;23.90;99.90
20481;DHT22;10399;50.754;3.366;2022-07-21T14:06:01;24.00;99.90
20481;DHT22;10399;50.754;3.366;2022-07-21T14:08:28;24.20;99.90
20481;DHT22;10399;50.754;3.366;2022-07-21T14:10:55;24.20;99.90
20481;DHT22;10399;50.754;3.366;2022-07-21T14:13:23;24.20;99.90
20481;DHT22;10399;50.754;3.366;2022-07-21T14:15:50;24.30;99.90
20481;DHT22;10399;50.754;3.366;2022-07-21T14:18:17;24.20;99.90
20481;DHT22;10399;50.754;3.366;2022-07-21T14:20:44;24.20;99.90
20481;DHT22;10399;50.754;3.366;2022-07-21T14:23:11;24.20;99.90
20481;DHT22;10399;50.754;3.366;2022-07-21T14:25:37;24.20;99.90
20481;DHT22;10399;50.754;3.366;2022-07-21T14:28:06;24.20;99.90
20481;DHT22;10399;50.754;3.366;2022-07-21T14:30:33;24.10;99.90
20481;DHT22;10399;50.754;3.366;2022-07-21T14:33:00;24.00;99.90
20481;DHT22;10399;50.754;3.366;2022-07-21T14:35:27;24.00;99.90
20481;DHT22;10399;50.754;3.366;2022-07-21T14:37:55;23.80;99.90
20481;DHT22;10399;50.754;3.366;2022-07-21T14:40:23;23.70;99.90
20481;DHT22;10399;50.754;3.366;2022-07-21T14:42:50;23.70;99.90
20481;DHT22;10399;50.754;3.366;2022-07-21T14:45:20;23.40;99.90
20481;DHT22;10399;50.754;3.366;2022-07-21T14:47:54;23.50;99.90
20481;DHT22;10399;50.754;3.366;2022-07-21T14:50:24;23.70;99.90
20481;DHT22;10399;50.754;3.366;2022-07-21T14:52:58;23.50;99.90
20481;DHT22;10399;50.754;3.366;2022-07-21T14:55:28;23.50;99.90
20481;DHT22;10399;50.754;3.366;2022-07-21T14:57:56;23.50;99.90
20481;DHT22;10399;50.754;3.366;2022-07-21T15:00:23;23.60;99.90
20481;DHT22;10399;50.754;3.366;2022-07-21T15:02:52;23.70;99.90
20481;DHT22;10399;50.754;3.366;2022-07-21T15:05:20;23.70;99.90
20481;DHT22;10399;50.754;3.366;2022-07-21T15:07:47;23.90;99.90
20481;DHT22;10399;50.754;3.366;2022-07-21T15:10:14;24.00;99.90
20481;DHT22;10399;50.754;3.366;2022-07-21T15:12:41;23.90;99.90
20481;DHT22;10399;50.754;3.366;2022-07-21T15:15:08;23.80;99.90
20481;DHT22;10399;50.754;3.366;2022-07-21T15:17:36;23.90;99.90
20481;DHT22;10399;50.754;3.366;2022-07-21T15:20:05;23.90;99.90
20481;DHT22;10399;50.754;3.366;2022-07-21T15:22:39;24.00;99.90
20481;DHT22;10399;50.754;3.366;2022-07-21T15:25:06;23.90;99.90
20481;DHT22;10399;50.754;3.366;2022-07-21T15:27:38;23.90;99.90
20481;DHT22;10399;50.754;3.366;2022-07-21T15:30:08;24.10;99.90
20481;DHT22;10399;50.754;3.366;2022-07-21T15:32:35;24.10;99.90
20481;DHT22;10399;50.754;3.366;2022-07-21T15:35:03;24.20;99.90
20481;DHT22;10399;50.754;3.366;2022-07-21T15:37:31;24.30;99.90
20481;DHT22;10399;50.754;3.366;2022-07-21T15:39:58;24.20;99.90
20481;DHT22;10399;50.754;3.366;2022-07-21T15:42:25;24.20;99.90
20481;DHT22;10399;50.754;3.366;2022-07-21T15:44:54;24.20;99.90
20481;DHT22;10399;50.754;3.366;2022-07-21T15:47:22;24.20;99.90
20481;DHT22;10399;50.754;3.366;2022-07-21T15:49:49;24.30;99.90
20481;DHT22;10399;50.754;3.366;2022-07-21T15:52:16;24.50;99.90
20481;DHT22;10399;50.754;3.366;2022-07-21T15:54:43;24.70;99.90
20481;DHT22;10399;50.754;3.366;2022-07-21T15:57:28;25.00;99.90
20481;DHT22;10399;50.754;3.366;2022-07-21T15:59:55;25.20;99.90
20481;DHT22;10399;50.754;3.366;2022-07-21T16:02:22;25.10;99.90
20481;DHT22;10399;50.754;3.366;2022-07-21T16:04:49;25.10;99.90
20481;DHT22;10399;50.754;3.366;2022-07-21T16:07:16;25.00;99.90
20481;DHT22;10399;50.754;3.366;2022-07-21T16:09:43;25.00;99.90
20481;DHT22;10399;50.754;3.366;2022-07-21T16:12:11;24.90;99.90
20481;DHT22;10399;50.754;3.366;2022-07-21T16:14:39;25.00;99.90